createdAt,value
2023-01-26T00:02:06.333Z,100987.00
2023-01-26T00:04:33.916Z,100981.00
2023-01-26T00:07:01.427Z,100984.00
2023-01-26T00:09:29.237Z,100977.00
2023-01-26T00:11:56.762Z,100973.00
2023-01-26T00:14:24.765Z,100978.00
2023-01-26T00:16:53.942Z,100967.00
2023-01-26T00:19:21.384Z,100966.00
2023-01-26T00:21:48.725Z,100961.00
2023-01-26T00:24:16.155Z,100963.00
2023-01-26T00:26:43.787Z,100953.00
2023-01-26T00:29:11.572Z,100961.00
2023-01-26T00:31:39.201Z,100959.00
2023-01-26T00:34:06.984Z,100952.00
2023-01-26T00:36:37.978Z,100950.00
2023-01-26T00:39:05.682Z,100947.00
2023-01-26T00:41:53.911Z,100943.00
2023-01-26T00:44:21.509Z,100942.00
2023-01-26T00:46:49.580Z,100945.00
2023-01-26T00:49:20.105Z,100941.00
2023-01-26T00:51:49.136Z,100934.00
2023-01-26T00:54:17.117Z,100926.00
2023-01-26T00:56:47.217Z,100935.00
2023-01-26T00:59:15.287Z,100920.00
2023-01-26T01:01:50.269Z,100921.00
2023-01-26T01:04:20.882Z,100926.00
2023-01-26T01:06:48.855Z,100934.00
2023-01-26T01:09:18.645Z,100923.00
2023-01-26T01:11:46.526Z,100928.00
2023-01-26T01:14:15.641Z,100930.00
2023-01-26T01:16:45.735Z,100925.00
2023-01-26T01:19:18.383Z,100931.00
2023-01-26T01:21:46.475Z,100926.00
2023-01-26T01:24:14.338Z,100929.00
2023-01-26T01:26:42.119Z,100923.00
2023-01-26T01:29:15.651Z,100932.00
2023-01-26T01:31:43.698Z,100925.00
2023-01-26T01:34:11.690Z,100924.00
2023-01-26T01:36:39.508Z,100930.00
2023-01-26T01:39:07.095Z,100926.00
2023-01-26T01:41:34.755Z,100919.00
2023-01-26T01:44:25.216Z,100909.00
2023-01-26T01:47:02.562Z,100911.00
2023-01-26T01:49:48.393Z,100905.00
2023-01-26T01:52:26.478Z,100913.00
2023-01-26T01:55:02.300Z,100911.00
2023-01-26T01:57:45.250Z,100898.00
2023-01-26T02:00:22.463Z,100894.00
2023-01-26T02:03:11.830Z,100892.00
2023-01-26T02:06:10.271Z,100889.00
2023-01-26T02:08:50.131Z,100889.00
2023-01-26T02:11:32.898Z,100887.00
2023-01-26T02:14:09.179Z,100880.00
2023-01-26T02:16:40.144Z,100868.00
2023-01-26T02:19:17.797Z,100871.00
2023-01-26T02:21:48.034Z,100872.00
2023-01-26T02:24:26.692Z,100863.00
2023-01-26T02:26:56.087Z,100865.00
2023-01-26T02:29:24.563Z,100867.00
2023-01-26T02:31:53.872Z,100869.00
2023-01-26T02:34:24.924Z,100862.00
2023-01-26T02:37:02.417Z,100857.00
2023-01-26T02:39:57.217Z,100869.00
2023-01-26T02:42:42.261Z,100866.00
2023-01-26T02:45:14.671Z,100863.00
2023-01-26T02:47:45.061Z,100866.00
2023-01-26T02:50:14.082Z,100864.00
2023-01-26T02:52:43.615Z,100860.00
2023-01-26T02:55:25.536Z,100857.00
2023-01-26T02:57:59.801Z,100859.00
2023-01-26T03:00:37.450Z,100856.00
2023-01-26T03:03:16.243Z,100862.00
2023-01-26T03:05:43.922Z,100858.00
2023-01-26T03:08:11.479Z,100870.00
2023-01-26T03:10:39.685Z,100873.00
2023-01-26T03:13:08.047Z,100870.00
2023-01-26T03:15:43.461Z,100861.00
2023-01-26T03:18:35.969Z,100857.00
2023-01-26T03:21:30.587Z,100857.00
2023-01-26T03:24:17.164Z,100862.00
2023-01-26T03:27:03.920Z,100851.00
2023-01-26T03:29:34.261Z,100850.00
2023-01-26T03:32:02.768Z,100839.00
2023-01-26T03:34:30.555Z,100835.00
2023-01-26T03:36:58.622Z,100837.00
2023-01-26T03:39:47.744Z,100829.00
2023-01-26T03:42:34.635Z,100825.00
2023-01-26T03:45:20.776Z,100830.00
2023-01-26T03:48:08.602Z,100835.00
2023-01-26T03:50:54.984Z,100834.00
2023-01-26T03:53:45.443Z,100835.00
2023-01-26T03:56:20.265Z,100839.00
2023-01-26T03:58:57.413Z,100838.00
2023-01-26T04:01:28.473Z,100844.00
2023-01-26T04:04:17.953Z,100830.00
2023-01-26T04:07:08.350Z,100825.00
2023-01-26T04:09:39.805Z,100825.00
2023-01-26T04:12:07.803Z,100825.00
2023-01-26T04:14:58.841Z,100826.00
2023-01-26T04:17:46.533Z,100817.00
2023-01-26T04:20:33.733Z,100814.00
2023-01-26T04:23:01.613Z,100809.00
2023-01-26T04:25:29.778Z,100809.00
2023-01-26T04:27:58.596Z,100805.00
2023-01-26T04:30:26.493Z,100805.00
2023-01-26T04:32:54.443Z,100806.00
2023-01-26T04:35:22.034Z,100806.00
2023-01-26T04:37:49.571Z,100808.00
2023-01-26T04:40:17.839Z,100818.00
2023-01-26T04:42:46.908Z,100813.00
2023-01-26T04:45:14.272Z,100815.00
2023-01-26T04:47:43.267Z,100807.00
2023-01-26T04:50:11.578Z,100806.00
2023-01-26T04:52:39.696Z,100804.00
2023-01-26T04:55:07.909Z,100800.00
2023-01-26T04:57:35.677Z,100797.00
2023-01-26T05:00:05.456Z,100795.00
2023-01-26T05:02:33.276Z,100792.00
2023-01-26T05:05:00.830Z,100793.00
2023-01-26T05:07:29.183Z,100786.00
2023-01-26T05:09:57.454Z,100791.00
2023-01-26T05:12:43.039Z,100794.00
2023-01-26T05:15:30.510Z,100793.00
2023-01-26T05:18:03.769Z,100797.00
2023-01-26T05:20:50.491Z,100792.00
2023-01-26T05:23:23.377Z,100794.00
2023-01-26T05:26:09.982Z,100786.00
2023-01-26T05:28:55.653Z,100785.00
2023-01-26T05:31:23.571Z,100795.00
2023-01-26T05:33:51.254Z,100800.00
2023-01-26T05:36:22.702Z,100806.00
2023-01-26T05:38:50.732Z,100796.00
2023-01-26T05:41:22.233Z,100802.00
2023-01-26T05:44:10.430Z,100807.00
2023-01-26T05:46:48.998Z,100805.00
2023-01-26T05:49:16.706Z,100812.00
2023-01-26T05:51:44.381Z,100805.00
2023-01-26T05:54:12.498Z,100807.00
2023-01-26T05:56:40.763Z,100809.00
2023-01-26T05:59:09.095Z,100804.00
2023-01-26T06:01:36.717Z,100807.00
2023-01-26T06:04:07.772Z,100811.00
2023-01-26T06:06:57.211Z,100808.00
2023-01-26T06:09:29.428Z,100803.00
2023-01-26T06:12:18.546Z,100806.00
2023-01-26T06:14:59.619Z,100811.00
2023-01-26T06:17:40.640Z,100821.00
2023-01-26T06:20:11.664Z,100821.00
2023-01-26T06:22:39.877Z,100824.00
2023-01-26T06:25:07.922Z,100816.00
2023-01-26T06:27:36.562Z,100817.00
2023-01-26T06:30:12.036Z,100811.00
2023-01-26T06:32:40.751Z,100819.00
2023-01-26T06:35:09.103Z,100824.00
2023-01-26T06:37:37.390Z,100825.00
2023-01-26T06:40:05.956Z,100820.00
2023-01-26T06:42:33.766Z,100821.00
2023-01-26T06:45:01.462Z,100815.00
2023-01-26T06:47:28.892Z,100815.00
2023-01-26T06:49:56.504Z,100818.00
2023-01-26T06:52:31.523Z,100825.00
2023-01-26T06:55:05.300Z,100819.00
2023-01-26T06:57:51.681Z,100820.00
2023-01-26T07:00:42.190Z,100822.00
2023-01-26T07:03:19.157Z,100822.00
2023-01-26T07:05:46.678Z,100820.00
2023-01-26T07:08:14.576Z,100820.00
2023-01-26T07:10:42.086Z,100814.00
2023-01-26T07:13:09.610Z,100814.00
2023-01-26T07:15:37.272Z,100812.00
2023-01-26T07:18:04.952Z,100820.00
2023-01-26T07:20:32.321Z,100824.00
2023-01-26T07:23:02.886Z,100828.00
2023-01-26T07:25:30.266Z,100834.00
2023-01-26T07:28:00.147Z,100830.00
2023-01-26T07:30:28.171Z,100824.00
2023-01-26T07:32:55.937Z,100820.00
2023-01-26T07:35:23.559Z,100835.00
2023-01-26T07:37:51.195Z,100837.00
2023-01-26T07:40:20.086Z,100830.00
2023-01-26T07:42:48.079Z,100832.00
2023-01-26T07:45:19.565Z,100834.00
2023-01-26T07:47:48.284Z,100833.00
2023-01-26T07:50:16.146Z,100832.00
2023-01-26T07:52:45.066Z,100835.00
2023-01-26T07:55:13.233Z,100844.00
2023-01-26T07:57:41.760Z,100843.00
2023-01-26T08:00:10.641Z,100847.00
2023-01-26T08:02:40.975Z,100844.00
2023-01-26T08:05:09.608Z,100847.00
2023-01-26T08:07:37.513Z,100853.00
2023-01-26T08:10:06.016Z,100853.00
2023-01-26T08:12:39.060Z,100859.00
2023-01-26T08:15:09.137Z,100860.00
2023-01-26T08:17:36.752Z,100862.00
2023-01-26T08:20:05.027Z,100857.00
2023-01-26T08:22:35.757Z,100853.00
2023-01-26T08:25:03.389Z,100849.00
2023-01-26T08:27:30.811Z,100849.00
2023-01-26T08:29:58.875Z,100847.00
2023-01-26T08:32:31.320Z,100844.00
2023-01-26T08:34:58.939Z,100837.00
2023-01-26T08:37:26.543Z,100844.00
2023-01-26T08:39:54.120Z,100838.00
2023-01-26T08:42:22.753Z,100843.00
2023-01-26T08:44:50.376Z,100834.00
2023-01-26T08:47:17.827Z,100838.00
2023-01-26T08:49:45.209Z,100837.00
2023-01-26T08:52:12.827Z,100836.00
2023-01-26T08:54:40.374Z,100836.00
2023-01-26T08:57:07.971Z,100838.00
2023-01-26T08:59:35.402Z,100850.00
2023-01-26T09:02:02.899Z,100849.00
2023-01-26T09:04:30.558Z,100848.00
2023-01-26T09:06:58.400Z,100844.00
2023-01-26T09:09:26.247Z,100844.00
2023-01-26T09:11:56.673Z,100836.00
2023-01-26T09:14:24.777Z,100832.00
2023-01-26T09:16:52.632Z,100834.00
2023-01-26T09:19:20.359Z,100826.00
2023-01-26T09:21:47.824Z,100831.00
2023-01-26T09:24:15.641Z,100819.00
2023-01-26T09:26:45.790Z,100829.00
2023-01-26T09:29:13.641Z,100826.00
2023-01-26T09:31:41.418Z,100828.00
2023-01-26T09:34:09.001Z,100822.00
2023-01-26T09:36:36.388Z,100830.00
2023-01-26T09:39:04.252Z,100820.00
2023-01-26T09:41:56.717Z,100828.00
2023-01-26T09:44:26.757Z,100837.00
2023-01-26T09:47:24.905Z,100852.00
2023-01-26T09:50:02.210Z,100844.00
2023-01-26T09:52:58.064Z,100834.00
2023-01-26T09:55:26.284Z,100845.00
2023-01-26T09:58:07.297Z,100844.00
2023-01-26T10:00:47.532Z,100847.00
2023-01-26T10:03:51.751Z,100836.00
2023-01-26T10:06:31.535Z,100845.00
2023-01-26T10:09:35.154Z,100843.00
2023-01-26T10:12:09.901Z,100839.00
2023-01-26T10:14:52.294Z,100824.00
2023-01-26T10:17:42.746Z,100821.00
2023-01-26T10:20:16.115Z,100823.00
2023-01-26T10:22:48.335Z,100820.00
2023-01-26T10:25:41.994Z,100816.00
2023-01-26T10:28:20.878Z,100807.00
2023-01-26T10:30:51.622Z,100811.00
2023-01-26T10:33:21.403Z,100804.00
2023-01-26T10:35:49.413Z,100801.00
2023-01-26T10:38:38.176Z,100798.00
2023-01-26T10:41:24.406Z,100798.00
2023-01-26T10:43:56.803Z,100799.00
2023-01-26T10:46:38.240Z,100794.00
2023-01-26T10:49:11.911Z,100787.00
2023-01-26T10:51:45.876Z,100782.00
2023-01-26T10:54:26.340Z,100776.00
2023-01-26T10:57:04.660Z,100782.00
2023-01-26T10:59:35.631Z,100775.00
2023-01-26T11:02:27.874Z,100773.00
2023-01-26T11:05:07.489Z,100774.00
2023-01-26T11:07:44.107Z,100768.00
2023-01-26T11:10:23.776Z,100765.00
2023-01-26T11:13:06.566Z,100765.00
2023-01-26T11:16:01.360Z,100765.00
2023-01-26T11:18:56.376Z,100769.00
2023-01-26T11:21:50.953Z,100759.00
2023-01-26T11:24:28.398Z,100755.00
2023-01-26T11:27:22.379Z,100754.00
2023-01-26T11:30:10.520Z,100753.00
2023-01-26T11:33:02.110Z,100757.00
2023-01-26T11:36:10.137Z,100748.00
2023-01-26T11:39:01.545Z,100741.00
2023-01-26T11:42:01.015Z,100741.00
2023-01-26T11:44:56.766Z,100737.00
2023-01-26T11:47:50.755Z,100731.00
2023-01-26T11:50:42.195Z,100730.00
2023-01-26T11:53:40.158Z,100723.00
2023-01-26T11:56:53.942Z,100714.00
2023-01-26T11:59:30.723Z,100713.00
2023-01-26T12:02:25.172Z,100714.00
2023-01-26T12:04:56.019Z,100719.00
2023-01-26T12:07:54.956Z,100714.00
2023-01-26T12:11:22.745Z,100710.00
2023-01-26T12:14:13.457Z,100711.00
2023-01-26T12:16:43.678Z,100707.00
2023-01-26T12:19:16.986Z,100707.00
2023-01-26T12:21:46.276Z,100711.00
2023-01-26T12:24:54.228Z,100708.00
2023-01-26T12:27:41.282Z,100721.00
2023-01-26T12:30:36.220Z,100707.00
2023-01-26T12:33:04.247Z,100700.00
2023-01-26T12:36:00.314Z,100696.00
2023-01-26T12:39:00.757Z,100700.00
2023-01-26T12:42:03.944Z,100691.00
2023-01-26T12:44:42.604Z,100690.00
2023-01-26T12:47:33.153Z,100680.00
2023-01-26T12:50:10.448Z,100677.00
2023-01-26T12:52:46.224Z,100684.00
2023-01-26T12:55:41.243Z,100673.00
2023-01-26T12:58:13.384Z,100667.00
2023-01-26T13:00:41.332Z,100663.00
2023-01-26T13:03:21.911Z,100668.00
2023-01-26T13:06:03.454Z,100657.00
2023-01-26T13:08:30.882Z,100658.00
2023-01-26T13:11:07.141Z,100658.00
2023-01-26T13:13:55.865Z,100665.00
2023-01-26T13:16:26.449Z,100664.00
2023-01-26T13:18:59.319Z,100661.00
2023-01-26T13:21:49.661Z,100669.00
2023-01-26T13:24:17.455Z,100671.00
2023-01-26T13:27:00.086Z,100661.00
2023-01-26T13:29:34.755Z,100657.00
2023-01-26T13:32:09.797Z,100664.00
2023-01-26T13:34:45.893Z,100663.00
2023-01-26T13:37:47.129Z,100671.00
2023-01-26T13:40:38.313Z,100673.00
2023-01-26T13:43:42.674Z,100681.00
2023-01-26T13:46:26.093Z,100673.00
2023-01-26T13:48:56.468Z,100669.00
2023-01-26T13:51:35.662Z,100671.00
2023-01-26T13:54:14.460Z,100672.00
2023-01-26T13:56:44.262Z,100661.00
2023-01-26T13:59:17.489Z,100656.00
2023-01-26T14:01:47.710Z,100655.00
2023-01-26T14:04:38.062Z,100667.00
2023-01-26T14:07:12.280Z,100662.00
2023-01-26T14:09:55.330Z,100663.00
2023-01-26T14:12:36.118Z,100662.00
2023-01-26T14:15:07.584Z,100666.00
2023-01-26T14:17:46.952Z,100669.00
2023-01-26T14:20:29.928Z,100666.00
2023-01-26T14:23:13.913Z,100669.00
2023-01-26T14:25:47.187Z,100678.00
2023-01-26T14:28:23.141Z,100686.00
2023-01-26T14:31:02.975Z,100688.00
2023-01-26T14:33:31.409Z,100685.00
2023-01-26T14:36:02.386Z,100686.00
2023-01-26T14:38:40.878Z,100683.00
2023-01-26T14:41:19.206Z,100697.00
2023-01-26T14:43:47.037Z,100699.00
2023-01-26T14:46:46.542Z,100691.00
2023-01-26T14:49:26.511Z,100696.00
2023-01-26T14:51:57.957Z,100698.00
2023-01-26T14:54:26.410Z,100693.00
2023-01-26T14:56:54.251Z,100689.00
2023-01-26T14:59:34.388Z,100691.00
2023-01-26T15:02:21.747Z,100695.00
2023-01-26T15:05:04.741Z,100703.00
2023-01-26T15:07:39.295Z,100704.00
2023-01-26T15:10:35.955Z,100703.00
2023-01-26T15:13:15.221Z,100702.00
2023-01-26T15:15:50.484Z,100705.00
2023-01-26T15:18:21.001Z,100700.00
2023-01-26T15:21:05.099Z,100701.00
2023-01-26T15:23:38.709Z,100696.00
2023-01-26T15:26:32.452Z,100704.00
2023-01-26T15:29:29.673Z,100705.00
2023-01-26T15:31:58.996Z,100706.00
2023-01-26T15:34:42.356Z,100705.00
2023-01-26T15:37:32.888Z,100704.00
2023-01-26T15:40:00.568Z,100707.00
2023-01-26T15:42:33.158Z,100697.00
2023-01-26T15:45:00.773Z,100705.00
2023-01-26T15:47:28.536Z,100697.00
2023-01-26T15:49:57.403Z,100698.00
2023-01-26T15:52:30.582Z,100705.00
2023-01-26T15:54:58.211Z,100698.00
2023-01-26T15:57:25.755Z,100711.00
2023-01-26T15:59:54.101Z,100709.00
2023-01-26T16:02:22.401Z,100717.00
2023-01-26T16:04:50.290Z,100724.00
2023-01-26T16:07:19.592Z,100721.00
2023-01-26T16:09:49.308Z,100721.00
2023-01-26T16:12:31.262Z,100723.00
2023-01-26T16:15:00.447Z,100711.00
2023-01-26T16:17:28.357Z,100712.00
2023-01-26T16:19:56.130Z,100712.00
2023-01-26T16:22:23.944Z,100717.00
2023-01-26T16:24:52.052Z,100720.00
2023-01-26T16:27:21.852Z,100716.00
2023-01-26T16:29:49.967Z,100713.00
2023-01-26T16:32:29.020Z,100709.00
2023-01-26T16:34:56.820Z,100717.00
2023-01-26T16:37:24.572Z,100704.00
2023-01-26T16:39:52.337Z,100711.00
2023-01-26T16:42:21.700Z,100710.00
2023-01-26T16:44:50.240Z,100706.00
2023-01-26T16:47:18.101Z,100706.00
2023-01-26T16:49:45.890Z,100708.00
2023-01-26T16:52:13.674Z,100708.00
2023-01-26T16:54:41.726Z,100705.00
2023-01-26T16:57:09.875Z,100709.00
2023-01-26T16:59:37.779Z,100708.00
2023-01-26T17:02:10.603Z,100710.00
2023-01-26T17:04:38.485Z,100715.00
2023-01-26T17:07:06.391Z,100712.00
2023-01-26T17:09:34.064Z,100714.00
2023-01-26T17:12:01.857Z,100721.00
2023-01-26T17:14:29.952Z,100722.00
2023-01-26T17:16:57.741Z,100714.00
2023-01-26T17:19:25.666Z,100718.00
2023-01-26T17:21:53.616Z,100721.00
2023-01-26T17:24:21.426Z,100727.00
2023-01-26T17:26:49.454Z,100724.00
2023-01-26T17:29:17.443Z,100723.00
2023-01-26T17:31:45.637Z,100724.00
2023-01-26T17:34:13.558Z,100725.00
2023-01-26T17:36:41.286Z,100727.00
2023-01-26T17:39:10.353Z,100733.00
2023-01-26T17:41:38.219Z,100732.00
2023-01-26T17:44:06.126Z,100738.00
2023-01-26T17:46:33.879Z,100729.00
2023-01-26T17:49:01.814Z,100732.00
2023-01-26T17:51:30.066Z,100733.00
2023-01-26T17:53:58.604Z,100737.00
2023-01-26T17:56:26.544Z,100733.00
2023-01-26T17:58:55.480Z,100728.00
2023-01-26T18:01:25.734Z,100726.00
2023-01-26T18:03:56.379Z,100729.00
2023-01-26T18:06:24.497Z,100729.00
2023-01-26T18:08:52.303Z,100728.00
2023-01-26T18:11:20.357Z,100729.00
2023-01-26T18:13:48.798Z,100726.00
2023-01-26T18:16:20.729Z,100726.00
2023-01-26T18:18:49.166Z,100727.00
2023-01-26T18:21:19.714Z,100730.00
2023-01-26T18:23:49.663Z,100726.00
2023-01-26T18:26:20.643Z,100728.00
2023-01-26T18:28:48.896Z,100736.00
2023-01-26T18:31:22.055Z,100739.00
2023-01-26T18:33:49.931Z,100743.00
2023-01-26T18:36:21.340Z,100744.00
2023-01-26T18:38:51.335Z,100746.00
2023-01-26T18:41:20.639Z,100744.00
2023-01-26T18:43:51.694Z,100746.00
2023-01-26T18:46:20.558Z,100747.00
2023-01-26T18:48:48.790Z,100741.00
2023-01-26T18:51:18.527Z,100740.00
2023-01-26T18:53:46.435Z,100747.00
2023-01-26T18:56:16.362Z,100739.00
2023-01-26T18:58:44.265Z,100748.00
2023-01-26T19:01:15.117Z,100746.00
2023-01-26T19:03:47.773Z,100748.00
2023-01-26T19:06:19.876Z,100743.00
2023-01-26T19:08:55.596Z,100741.00
2023-01-26T19:11:23.485Z,100738.00
2023-01-26T19:13:51.808Z,100737.00
2023-01-26T19:16:19.934Z,100742.00
2023-01-26T19:18:48.069Z,100739.00
2023-01-26T19:21:17.363Z,100749.00
2023-01-26T19:23:45.535Z,100756.00
2023-01-26T19:26:19.488Z,100762.00
2023-01-26T19:28:50.478Z,100764.00
2023-01-26T19:31:19.779Z,100762.00
2023-01-26T19:34:01.698Z,100768.00
2023-01-26T19:36:32.065Z,100768.00
2023-01-26T19:39:00.110Z,100766.00
2023-01-26T19:41:28.430Z,100766.00
2023-01-26T19:43:56.366Z,100764.00
2023-01-26T19:46:24.247Z,100762.00
2023-01-26T19:48:52.014Z,100758.00
2023-01-26T19:51:22.025Z,100756.00
2023-01-26T19:53:52.450Z,100765.00
2023-01-26T19:56:22.625Z,100766.00
2023-01-26T19:58:55.630Z,100763.00
2023-01-26T20:01:24.498Z,100758.00
2023-01-26T20:03:53.852Z,100762.00
2023-01-26T20:06:23.069Z,100771.00
2023-01-26T20:08:51.767Z,100767.00
2023-01-26T20:11:25.147Z,100765.00
2023-01-26T20:14:10.081Z,100759.00
2023-01-26T20:16:38.350Z,100765.00
2023-01-26T20:19:06.772Z,100764.00
2023-01-26T20:21:35.747Z,100760.00
2023-01-26T20:24:06.308Z,100752.00
2023-01-26T20:26:35.214Z,100758.00
2023-01-26T20:29:03.643Z,100752.00
2023-01-26T20:31:32.969Z,100756.00
2023-01-26T20:34:02.264Z,100763.00
2023-01-26T20:36:30.875Z,100762.00
2023-01-26T20:38:59.037Z,100753.00
2023-01-26T20:41:32.205Z,100754.00
2023-01-26T20:44:02.955Z,100760.00
2023-01-26T20:46:33.569Z,100769.00
2023-01-26T20:49:01.403Z,100765.00
2023-01-26T20:51:33.748Z,100762.00
2023-01-26T20:54:02.372Z,100761.00
2023-01-26T20:56:31.256Z,100768.00
2023-01-26T20:58:59.515Z,100760.00
2023-01-26T21:01:27.835Z,100760.00
2023-01-26T21:04:00.243Z,100760.00
2023-01-26T21:06:28.211Z,100761.00
2023-01-26T21:08:58.009Z,100757.00
2023-01-26T21:11:28.354Z,100757.00
2023-01-26T21:13:57.679Z,100759.00
2023-01-26T21:16:26.006Z,100757.00
2023-01-26T21:18:54.313Z,100752.00
2023-01-26T21:21:22.526Z,100757.00
2023-01-26T21:23:51.080Z,100752.00
2023-01-26T21:26:22.251Z,100762.00
2023-01-26T21:28:52.481Z,100756.00
2023-01-26T21:31:22.405Z,100765.00
2023-01-26T21:33:50.599Z,100762.00
2023-01-26T21:36:21.024Z,100767.00
2023-01-26T21:38:51.239Z,100771.00
2023-01-26T21:41:43.062Z,100766.00
2023-01-26T21:44:16.160Z,100769.00
2023-01-26T21:46:46.446Z,100769.00
2023-01-26T21:49:15.096Z,100774.00
2023-01-26T21:52:01.891Z,100772.00
2023-01-26T21:54:30.539Z,100771.00
2023-01-26T21:56:59.366Z,100769.00
2023-01-26T21:59:27.594Z,100773.00
2023-01-26T22:01:56.958Z,100776.00
2023-01-26T22:04:29.756Z,100771.00
2023-01-26T22:06:58.566Z,100776.00
2023-01-26T22:09:30.184Z,100767.00
2023-01-26T22:11:57.970Z,100777.00
2023-01-26T22:14:26.573Z,100770.00
2023-01-26T22:16:54.537Z,100775.00
2023-01-26T22:19:22.720Z,100769.00
2023-01-26T22:21:50.837Z,100771.00
2023-01-26T22:24:19.067Z,100770.00
2023-01-26T22:26:47.695Z,100772.00
2023-01-26T22:29:15.350Z,100765.00
2023-01-26T22:31:43.242Z,100769.00
2023-01-26T22:34:14.374Z,100766.00
2023-01-26T22:36:42.479Z,100771.00
2023-01-26T22:39:12.462Z,100771.00
2023-01-26T22:41:40.449Z,100767.00
2023-01-26T22:44:08.412Z,100759.00
2023-01-26T22:46:37.069Z,100763.00
2023-01-26T22:49:05.238Z,100767.00
2023-01-26T22:51:37.449Z,100769.00
2023-01-26T22:54:05.992Z,100769.00
2023-01-26T22:56:34.216Z,100768.00
2023-01-26T22:59:02.213Z,100767.00
2023-01-26T23:01:31.924Z,100772.00
2023-01-26T23:04:01.141Z,100770.00
2023-01-26T23:06:29.534Z,100773.00
2023-01-26T23:08:58.627Z,100771.00
2023-01-26T23:11:28.387Z,100771.00
2023-01-26T23:13:57.978Z,100777.00
2023-01-26T23:16:26.463Z,100778.00
2023-01-26T23:18:56.868Z,100776.00
2023-01-26T23:21:25.344Z,100774.00
2023-01-26T23:23:53.481Z,100778.00
2023-01-26T23:26:21.439Z,100776.00
2023-01-26T23:28:49.261Z,100771.00
2023-01-26T23:31:18.123Z,100765.00
2023-01-26T23:33:49.224Z,100773.00
2023-01-26T23:36:17.125Z,100769.00
2023-01-26T23:38:45.953Z,100762.00
2023-01-26T23:41:14.415Z,100768.00
2023-01-26T23:43:42.344Z,100755.00
2023-01-26T23:46:11.278Z,100757.00
2023-01-26T23:48:39.394Z,100754.00
2023-01-26T23:51:09.546Z,100762.00
2023-01-26T23:53:37.914Z,100754.00
2023-01-26T23:56:11.378Z,100764.00
2023-01-26T23:58:39.671Z,100764.00
